createdAt,value
2022-08-27T00:01:56.290Z,20.50
2022-08-27T00:04:22.971Z,20.50
2022-08-27T00:06:49.764Z,20.40
2022-08-27T00:09:16.339Z,20.50
2022-08-27T00:11:53.044Z,20.40
2022-08-27T00:14:19.617Z,20.40
2022-08-27T00:16:46.257Z,20.40
2022-08-27T00:19:12.887Z,20.40
2022-08-27T00:21:39.492Z,20.40
2022-08-27T00:24:06.113Z,20.40
2022-08-27T00:26:32.703Z,20.40
2022-08-27T00:28:59.287Z,20.40
2022-08-27T00:31:27.380Z,20.40
2022-08-27T00:33:54.519Z,20.30
2022-08-27T00:36:21.304Z,20.30
2022-08-27T00:38:47.876Z,20.20
2022-08-27T00:41:20.689Z,20.20
2022-08-27T00:43:51.472Z,20.20
2022-08-27T00:46:20.152Z,20.20
2022-08-27T00:48:46.765Z,20.20
2022-08-27T00:51:13.372Z,20.20
2022-08-27T00:53:39.944Z,20.20
2022-08-27T00:56:16.318Z,20.20
2022-08-27T00:58:43.812Z,20.20
2022-08-27T01:01:11.463Z,20.20
2022-08-27T01:03:38.356Z,20.10
2022-08-27T01:06:05.060Z,20.10
2022-08-27T01:08:32.985Z,20.10
2022-08-27T01:11:00.185Z,20.10
2022-08-27T01:13:54.106Z,20.20
2022-08-27T01:16:16.477Z,20.20
2022-08-27T01:18:44.658Z,20.10
2022-08-27T01:21:14.212Z,20.10
2022-08-27T01:23:42.962Z,20.10
2022-08-27T01:26:09.605Z,20.10
2022-08-27T01:28:37.715Z,20.00
2022-08-27T01:31:04.934Z,20.00
2022-08-27T01:33:31.564Z,19.90
2022-08-27T01:35:58.137Z,19.90
2022-08-27T01:38:31.031Z,19.90
2022-08-27T01:41:01.514Z,19.90
2022-08-27T01:43:28.526Z,19.90
2022-08-27T01:45:55.195Z,19.80
2022-08-27T01:48:21.856Z,19.90
2022-08-27T01:50:48.433Z,19.80
2022-08-27T01:53:15.955Z,19.80
2022-08-27T01:55:48.143Z,19.80
2022-08-27T01:58:15.501Z,19.80
2022-08-27T02:00:42.894Z,19.80
2022-08-27T02:03:09.668Z,19.80
2022-08-27T02:05:39.356Z,19.80
2022-08-27T02:08:12.537Z,19.70
2022-08-27T02:10:39.442Z,19.70
2022-08-27T02:13:06.995Z,19.70
2022-08-27T02:15:34.416Z,19.70
2022-08-27T02:18:01.309Z,19.70
2022-08-27T02:20:29.338Z,19.60
2022-08-27T02:22:56.091Z,19.60
2022-08-27T02:25:22.674Z,19.50
2022-08-27T02:27:49.344Z,19.50
2022-08-27T02:30:18.033Z,19.60
2022-08-27T02:32:47.166Z,19.60
2022-08-27T02:35:14.488Z,19.60
2022-08-27T02:37:41.445Z,19.50
2022-08-27T02:40:08.888Z,19.50
2022-08-27T02:42:35.555Z,19.50
2022-08-27T02:45:02.124Z,19.50
2022-08-27T02:47:29.141Z,19.50
2022-08-27T02:49:55.772Z,19.50
2022-08-27T02:52:25.068Z,19.40
2022-08-27T02:54:51.963Z,19.40
2022-08-27T02:57:18.555Z,19.40
2022-08-27T02:59:45.191Z,19.50
2022-08-27T03:02:11.969Z,19.40
2022-08-27T03:04:38.639Z,19.40
2022-08-27T03:07:05.233Z,19.40
2022-08-27T03:09:31.807Z,19.40
2022-08-27T03:11:58.456Z,19.40
2022-08-27T03:14:25.027Z,19.40
2022-08-27T03:16:51.612Z,19.40
2022-08-27T03:19:23.866Z,19.40
2022-08-27T03:21:54.362Z,19.40
2022-08-27T03:24:21.341Z,19.40
2022-08-27T03:26:52.618Z,19.40
2022-08-27T03:29:20.804Z,19.50
2022-08-27T03:31:47.495Z,19.40
2022-08-27T03:34:14.140Z,19.40
2022-08-27T03:36:46.922Z,19.50
2022-08-27T03:39:13.759Z,19.50
2022-08-27T03:41:54.143Z,19.50
2022-08-27T03:44:22.337Z,19.50
2022-08-27T03:46:49.597Z,19.40
2022-08-27T03:49:16.911Z,19.40
2022-08-27T03:51:47.449Z,19.40
2022-08-27T03:54:14.030Z,19.40
2022-08-27T03:56:41.754Z,19.40
2022-08-27T03:59:08.375Z,19.40
2022-08-27T04:01:35.987Z,19.30
2022-08-27T04:04:02.891Z,19.30
2022-08-27T04:06:29.678Z,19.30
2022-08-27T04:08:56.268Z,19.30
2022-08-27T04:11:23.296Z,19.30
2022-08-27T04:13:49.976Z,19.30
2022-08-27T04:16:18.608Z,19.30
2022-08-27T04:18:45.232Z,19.20
2022-08-27T04:21:12.815Z,19.20
2022-08-27T04:23:39.753Z,19.10
2022-08-27T04:26:06.937Z,19.10
2022-08-27T04:28:38.259Z,19.20
2022-08-27T04:31:05.494Z,19.10
2022-08-27T04:33:32.423Z,19.10
2022-08-27T04:36:02.960Z,19.10
2022-08-27T04:38:29.761Z,19.10
2022-08-27T04:41:17.885Z,19.10
2022-08-27T04:43:44.485Z,19.20
2022-08-27T04:46:11.109Z,19.30
2022-08-27T04:48:38.515Z,19.30
2022-08-27T04:51:05.177Z,19.30
2022-08-27T04:53:31.769Z,19.30
2022-08-27T04:55:58.358Z,19.30
2022-08-27T04:58:25.086Z,19.30
2022-08-27T05:00:52.745Z,19.20
2022-08-27T05:03:19.877Z,19.20
2022-08-27T05:05:47.367Z,19.20
2022-08-27T05:08:13.979Z,19.10
2022-08-27T05:10:41.203Z,19.10
2022-08-27T05:13:08.995Z,19.10
2022-08-27T05:15:35.830Z,19.10
2022-08-27T05:18:03.143Z,19.10
2022-08-27T05:20:29.905Z,19.10
2022-08-27T05:22:56.627Z,19.10
2022-08-27T05:25:23.608Z,19.00
2022-08-27T05:27:50.197Z,19.00
2022-08-27T05:30:16.928Z,18.90
2022-08-27T05:32:43.597Z,18.90
2022-08-27T05:35:13.906Z,18.80
2022-08-27T05:37:42.813Z,18.70
2022-08-27T05:40:09.756Z,18.70
2022-08-27T05:42:36.612Z,18.70
2022-08-27T05:45:03.401Z,18.60
2022-08-27T05:47:30.016Z,18.70
2022-08-27T05:49:56.600Z,18.60
2022-08-27T05:52:23.180Z,18.60
2022-08-27T05:54:49.969Z,18.60
2022-08-27T05:57:16.549Z,18.70
2022-08-27T06:00:01.946Z,18.60
2022-08-27T06:02:28.589Z,18.70
2022-08-27T06:04:55.396Z,18.70
2022-08-27T06:07:22.125Z,18.70
2022-08-27T06:09:48.907Z,18.70
2022-08-27T06:12:15.478Z,18.70
2022-08-27T06:14:42.208Z,18.70
2022-08-27T06:17:08.786Z,18.90
2022-08-27T06:19:36.354Z,18.90
2022-08-27T06:22:10.482Z,19.00
2022-08-27T06:24:41.336Z,19.10
2022-08-27T06:27:11.314Z,19.10
2022-08-27T06:29:37.928Z,19.00
2022-08-27T06:32:05.360Z,19.00
2022-08-27T06:34:32.310Z,19.00
2022-08-27T06:36:58.942Z,19.00
2022-08-27T06:39:25.896Z,19.00
2022-08-27T06:41:53.037Z,18.90
2022-08-27T06:44:19.652Z,18.90
2022-08-27T06:46:46.453Z,18.80
2022-08-27T06:49:13.107Z,18.80
2022-08-27T06:51:39.948Z,18.80
2022-08-27T06:54:07.715Z,19.00
2022-08-27T06:56:34.339Z,19.20
2022-08-27T06:59:01.933Z,19.20
2022-08-27T07:01:32.516Z,19.30
2022-08-27T07:03:59.890Z,19.30
2022-08-27T07:06:26.857Z,19.20
2022-08-27T07:08:53.884Z,19.30
2022-08-27T07:11:20.559Z,19.40
2022-08-27T07:13:47.275Z,19.30
2022-08-27T07:16:14.561Z,19.40
2022-08-27T07:18:41.223Z,19.30
2022-08-27T07:21:08.093Z,19.30
2022-08-27T07:23:35.928Z,19.40
2022-08-27T07:26:05.824Z,19.30
2022-08-27T07:28:32.409Z,19.30
2022-08-27T07:30:59.043Z,19.20
2022-08-27T07:33:25.700Z,19.30
2022-08-27T07:35:52.341Z,19.30
2022-08-27T07:38:19.833Z,19.30
2022-08-27T07:40:46.701Z,19.30
2022-08-27T07:43:32.053Z,19.20
2022-08-27T07:46:00.300Z,19.10
2022-08-27T07:48:27.874Z,19.10
2022-08-27T07:50:54.674Z,19.20
2022-08-27T07:53:21.351Z,19.10
2022-08-27T07:55:47.994Z,19.10
2022-08-27T07:58:18.549Z,19.10
2022-08-27T08:00:45.609Z,19.10
2022-08-27T08:03:12.187Z,19.00
2022-08-27T08:05:42.900Z,19.00
2022-08-27T08:08:09.564Z,19.10
2022-08-27T08:10:36.881Z,19.20
2022-08-27T08:13:03.688Z,19.40
2022-08-27T08:15:30.271Z,19.60
2022-08-27T08:17:56.840Z,19.70
2022-08-27T08:20:35.916Z,19.80
2022-08-27T08:23:10.575Z,19.80
2022-08-27T08:25:38.727Z,19.60
2022-08-27T08:28:05.523Z,19.70
2022-08-27T08:30:35.196Z,19.60
2022-08-27T08:33:02.348Z,19.60
2022-08-27T08:35:34.961Z,19.70
2022-08-27T08:38:07.579Z,19.80
2022-08-27T08:40:35.426Z,19.80
2022-08-27T08:43:02.241Z,20.00
2022-08-27T08:45:29.788Z,20.10
2022-08-27T08:47:57.751Z,20.30
2022-08-27T08:50:28.814Z,20.60
2022-08-27T08:53:19.975Z,20.70
2022-08-27T08:55:56.297Z,20.80
2022-08-27T08:58:25.892Z,20.90
2022-08-27T09:00:57.852Z,20.90
2022-08-27T09:03:24.737Z,20.80
2022-08-27T09:06:02.310Z,20.80
2022-08-27T09:08:35.422Z,20.60
2022-08-27T09:11:10.685Z,20.70
2022-08-27T09:13:39.941Z,20.70
2022-08-27T09:16:06.776Z,20.70
2022-08-27T09:18:35.255Z,20.70
2022-08-27T09:21:10.777Z,20.60
2022-08-27T09:23:43.941Z,20.60
2022-08-27T09:26:17.847Z,20.50
2022-08-27T09:29:03.252Z,20.50
2022-08-27T09:31:29.881Z,20.40
2022-08-27T09:33:57.215Z,20.40
2022-08-27T09:36:24.166Z,20.50
2022-08-27T09:38:55.667Z,20.60
2022-08-27T09:41:29.978Z,20.50
2022-08-27T09:44:03.665Z,20.50
2022-08-27T09:46:30.485Z,20.60
2022-08-27T09:48:57.108Z,20.60
2022-08-27T09:51:25.618Z,20.60
2022-08-27T09:53:52.162Z,20.60
2022-08-27T09:56:23.670Z,20.70
2022-08-27T09:58:51.520Z,21.00
2022-08-27T10:01:22.566Z,21.20
2022-08-27T10:03:49.544Z,21.50
2022-08-27T10:06:28.869Z,21.60
2022-08-27T10:08:57.842Z,21.70
2022-08-27T10:11:33.986Z,21.70
2022-08-27T10:14:03.605Z,21.70
2022-08-27T10:16:36.449Z,21.90
2022-08-27T10:19:11.892Z,22.10
2022-08-27T10:21:44.518Z,22.30
2022-08-27T10:24:14.163Z,22.60
2022-08-27T10:26:41.749Z,22.60
2022-08-27T10:29:12.816Z,22.60
2022-08-27T10:31:47.784Z,22.80
2022-08-27T10:34:14.426Z,23.00
2022-08-27T10:36:54.187Z,22.90
2022-08-27T10:39:40.352Z,22.90
2022-08-27T10:42:14.612Z,22.70
2022-08-27T10:44:44.174Z,22.70
2022-08-27T10:47:10.725Z,22.90
2022-08-27T10:49:40.317Z,23.10
2022-08-27T10:52:21.980Z,23.00
2022-08-27T10:54:51.932Z,23.20
2022-08-27T10:57:51.684Z,23.20
2022-08-27T11:00:21.447Z,23.00
2022-08-27T11:02:51.361Z,23.00
2022-08-27T11:05:22.085Z,22.90
2022-08-27T11:07:53.576Z,22.70
2022-08-27T11:10:25.481Z,22.60
2022-08-27T11:12:53.224Z,22.50
2022-08-27T11:15:25.483Z,22.30
2022-08-27T11:17:55.314Z,22.50
2022-08-27T11:20:29.999Z,22.60
2022-08-27T11:22:57.923Z,22.60
2022-08-27T11:25:32.604Z,22.60
2022-08-27T11:27:59.206Z,22.50
2022-08-27T11:30:34.920Z,22.50
2022-08-27T11:33:01.460Z,22.60
2022-08-27T11:35:32.192Z,22.60
2022-08-27T11:38:20.100Z,22.80
2022-08-27T11:41:05.597Z,22.80
2022-08-27T11:43:33.084Z,22.70
2022-08-27T11:46:03.661Z,22.80
2022-08-27T11:48:34.290Z,22.80
2022-08-27T11:51:04.906Z,22.80
2022-08-27T11:53:32.635Z,22.80
2022-08-27T11:56:10.292Z,22.90
2022-08-27T11:58:52.687Z,22.80
2022-08-27T12:01:30.688Z,22.70
2022-08-27T12:04:06.393Z,22.60
2022-08-27T12:06:43.370Z,22.50
2022-08-27T12:09:15.181Z,22.50
2022-08-27T12:11:44.204Z,22.40
2022-08-27T12:14:12.436Z,22.40
2022-08-27T12:16:51.667Z,22.40
2022-08-27T12:19:31.237Z,22.30
2022-08-27T12:22:04.213Z,22.40
2022-08-27T12:24:40.498Z,22.50
2022-08-27T12:27:24.918Z,22.50
2022-08-27T12:29:52.820Z,22.30
2022-08-27T12:32:39.236Z,22.20
2022-08-27T12:35:10.635Z,22.30
2022-08-27T12:37:40.685Z,22.30
2022-08-27T12:40:29.453Z,22.30
2022-08-27T12:43:07.980Z,22.30
2022-08-27T12:45:35.071Z,22.40
2022-08-27T12:48:01.652Z,22.60
2022-08-27T12:50:29.491Z,22.50
2022-08-27T12:52:56.867Z,22.40
2022-08-27T12:55:32.604Z,22.40
2022-08-27T12:58:06.049Z,22.50
2022-08-27T13:00:48.349Z,22.50
2022-08-27T13:03:22.800Z,22.50
2022-08-27T13:05:49.905Z,22.60
2022-08-27T13:08:21.044Z,22.90
2022-08-27T13:10:47.646Z,22.90
2022-08-27T13:13:15.822Z,22.90
2022-08-27T13:15:46.774Z,23.00
2022-08-27T13:18:13.602Z,23.10
2022-08-27T13:20:40.329Z,23.30
2022-08-27T13:23:07.890Z,23.40
2022-08-27T13:25:34.870Z,23.40
2022-08-27T13:28:07.925Z,23.50
2022-08-27T13:30:36.570Z,23.40
2022-08-27T13:33:03.987Z,23.00
2022-08-27T13:35:32.464Z,22.70
2022-08-27T13:37:59.058Z,22.40
2022-08-27T13:40:30.903Z,22.20
2022-08-27T13:42:57.839Z,22.10
2022-08-27T13:45:24.489Z,22.10
2022-08-27T13:47:51.268Z,22.00
2022-08-27T13:50:20.474Z,21.80
2022-08-27T13:53:05.995Z,21.50
2022-08-27T13:55:35.567Z,21.30
2022-08-27T13:58:11.213Z,21.10
2022-08-27T14:00:37.972Z,21.00
2022-08-27T14:03:04.622Z,20.90
2022-08-27T14:05:32.304Z,20.90
2022-08-27T14:07:59.686Z,20.80
2022-08-27T14:10:36.961Z,20.80
2022-08-27T14:13:10.803Z,20.70
2022-08-27T14:15:47.792Z,20.70
2022-08-27T14:18:32.407Z,20.60
2022-08-27T14:21:10.254Z,20.50
2022-08-27T14:23:36.876Z,20.30
2022-08-27T14:26:03.712Z,20.20
2022-08-27T14:28:31.585Z,20.10
2022-08-27T14:30:58.552Z,20.00
2022-08-27T14:33:25.293Z,20.00
2022-08-27T14:35:51.901Z,20.00
2022-08-27T14:38:19.294Z,20.00
2022-08-27T14:40:46.386Z,20.20
2022-08-27T14:43:13.567Z,20.20
2022-08-27T14:45:43.608Z,20.30
2022-08-27T14:48:18.640Z,20.30
2022-08-27T14:50:45.953Z,20.40
2022-08-27T14:53:12.530Z,20.60
2022-08-27T14:55:39.582Z,20.80
2022-08-27T14:58:06.365Z,21.10
2022-08-27T15:00:32.971Z,21.30
2022-08-27T15:02:59.541Z,21.60
2022-08-27T15:05:26.237Z,21.90
2022-08-27T15:07:54.616Z,22.30
2022-08-27T15:10:21.190Z,22.50
2022-08-27T15:12:47.783Z,22.60
2022-08-27T15:15:18.910Z,22.70
2022-08-27T15:17:45.519Z,23.00
2022-08-27T15:20:13.769Z,23.50
2022-08-27T15:22:47.085Z,23.50
2022-08-27T15:25:13.836Z,23.80
2022-08-27T15:27:40.504Z,24.00
2022-08-27T15:30:08.888Z,23.60
2022-08-27T15:32:36.407Z,23.10
2022-08-27T15:35:05.075Z,22.70
2022-08-27T15:37:31.669Z,22.60
2022-08-27T15:39:58.632Z,22.60
2022-08-27T15:42:25.467Z,22.40
2022-08-27T15:44:52.950Z,22.20
2022-08-27T15:47:19.835Z,22.00
2022-08-27T15:49:46.474Z,21.70
2022-08-27T15:52:16.089Z,21.50
2022-08-27T15:54:43.243Z,21.40
2022-08-27T15:57:09.853Z,21.20
2022-08-27T15:59:36.533Z,21.10
2022-08-27T16:02:04.034Z,21.00
2022-08-27T16:04:30.708Z,20.90
2022-08-27T16:06:57.296Z,20.90
2022-08-27T16:09:23.933Z,20.90
2022-08-27T16:11:50.546Z,20.80
2022-08-27T16:14:17.229Z,20.80
2022-08-27T16:16:44.386Z,20.80
2022-08-27T16:19:14.766Z,20.70
2022-08-27T16:21:43.172Z,20.80
2022-08-27T16:24:10.892Z,20.70
2022-08-27T16:26:37.719Z,20.70
2022-08-27T16:29:04.496Z,20.70
2022-08-27T16:31:32.898Z,20.80
2022-08-27T16:33:59.643Z,20.80
2022-08-27T16:36:26.286Z,20.70
2022-08-27T16:38:52.927Z,20.80
2022-08-27T16:41:20.159Z,20.70
2022-08-27T16:43:48.773Z,20.70
2022-08-27T16:46:15.580Z,20.70
2022-08-27T16:49:01.290Z,20.70
2022-08-27T16:51:32.693Z,20.80
2022-08-27T16:54:02.134Z,20.70
2022-08-27T16:56:28.816Z,20.70
2022-08-27T16:58:55.442Z,20.60
2022-08-27T17:01:22.243Z,20.60
2022-08-27T17:04:08.489Z,20.60
2022-08-27T17:06:37.929Z,20.60
2022-08-27T17:09:06.572Z,20.50
2022-08-27T17:11:33.508Z,20.50
2022-08-27T17:14:02.172Z,20.40
2022-08-27T17:16:29.916Z,20.40
2022-08-27T17:18:58.293Z,20.40
2022-08-27T17:21:29.577Z,20.40
2022-08-27T17:23:59.057Z,20.30
2022-08-27T17:26:25.952Z,20.30
2022-08-27T17:28:53.433Z,20.20
2022-08-27T17:31:27.890Z,20.20
2022-08-27T17:33:54.889Z,20.20
2022-08-27T17:36:22.408Z,20.10
2022-08-27T17:38:49.086Z,20.10
2022-08-27T17:41:34.532Z,20.10
2022-08-27T17:44:01.970Z,20.10
2022-08-27T17:46:28.696Z,20.10
2022-08-27T17:48:55.313Z,20.00
2022-08-27T17:51:21.975Z,20.10
2022-08-27T17:53:49.996Z,20.10
2022-08-27T17:56:17.382Z,20.10
2022-08-27T17:58:44.622Z,20.10
2022-08-27T18:01:11.602Z,20.00
2022-08-27T18:03:44.484Z,20.00
2022-08-27T18:06:15.004Z,20.00
2022-08-27T18:08:41.628Z,19.90
2022-08-27T18:11:08.250Z,19.90
2022-08-27T18:13:37.174Z,19.90
2022-08-27T18:16:04.600Z,19.90
2022-08-27T18:18:31.458Z,19.80
2022-08-27T18:20:58.152Z,19.80
2022-08-27T18:23:24.733Z,19.70
2022-08-27T18:25:51.754Z,19.60
2022-08-27T18:28:18.451Z,19.60
2022-08-27T18:30:45.372Z,19.60
2022-08-27T18:33:12.056Z,19.60
2022-08-27T18:35:38.631Z,19.60
2022-08-27T18:38:07.425Z,19.50
2022-08-27T18:40:41.388Z,19.60
2022-08-27T18:43:08.033Z,19.50
2022-08-27T18:45:37.476Z,19.50
2022-08-27T18:48:05.701Z,19.50
2022-08-27T18:50:34.721Z,19.50
2022-08-27T18:53:01.382Z,19.50
2022-08-27T18:55:28.162Z,19.50
2022-08-27T18:57:54.829Z,19.50
2022-08-27T19:00:21.626Z,19.40
2022-08-27T19:02:52.088Z,19.40
2022-08-27T19:05:20.884Z,19.40
2022-08-27T19:07:47.737Z,19.50
2022-08-27T19:10:15.673Z,19.40
2022-08-27T19:12:42.478Z,19.40
2022-08-27T19:15:11.440Z,19.40
2022-08-27T19:17:38.055Z,19.40
2022-08-27T19:20:04.781Z,19.40
2022-08-27T19:22:31.868Z,19.40
2022-08-27T19:24:58.697Z,19.40
2022-08-27T19:27:25.687Z,19.30
2022-08-27T19:29:52.294Z,19.30
2022-08-27T19:32:18.988Z,19.30
2022-08-27T19:34:45.557Z,19.30
2022-08-27T19:37:14.856Z,19.30
2022-08-27T19:39:41.819Z,19.30
2022-08-27T19:42:08.438Z,19.30
2022-08-27T19:44:35.096Z,19.30
2022-08-27T19:47:02.006Z,19.30
2022-08-27T19:49:28.590Z,19.30
2022-08-27T19:51:55.221Z,19.30
2022-08-27T19:54:21.801Z,19.30
2022-08-27T19:56:48.392Z,19.30
2022-08-27T19:59:21.309Z,19.30
2022-08-27T20:01:48.112Z,19.30
2022-08-27T20:04:14.745Z,19.30
2022-08-27T20:06:41.611Z,19.30
2022-08-27T20:09:15.865Z,19.30
2022-08-27T20:11:43.386Z,19.30
2022-08-27T20:14:10.353Z,19.30
2022-08-27T20:16:37.112Z,19.30
2022-08-27T20:19:04.156Z,19.30
2022-08-27T20:21:30.879Z,19.30
2022-08-27T20:23:57.519Z,19.30
2022-08-27T20:26:24.995Z,19.30
2022-08-27T20:28:52.660Z,19.20
2022-08-27T20:31:19.426Z,19.20
2022-08-27T20:33:46.976Z,19.20
2022-08-27T20:36:13.634Z,19.10
2022-08-27T20:38:40.211Z,19.10
2022-08-27T20:41:07.048Z,19.10
2022-08-27T20:43:33.759Z,19.10
2022-08-27T20:46:00.407Z,19.00
2022-08-27T20:48:27.155Z,19.10
2022-08-27T20:50:54.105Z,19.00
2022-08-27T20:53:20.729Z,19.00
2022-08-27T20:55:47.331Z,19.10
2022-08-27T20:58:32.744Z,19.00
2022-08-27T21:00:59.388Z,19.10
2022-08-27T21:03:26.043Z,19.10
2022-08-27T21:05:52.891Z,19.10
2022-08-27T21:08:19.636Z,19.10
2022-08-27T21:10:47.413Z,19.00
2022-08-27T21:13:14.311Z,19.00
2022-08-27T21:15:40.900Z,19.00
2022-08-27T21:18:07.490Z,19.00
2022-08-27T21:20:34.156Z,19.00
2022-08-27T21:23:00.741Z,19.00
2022-08-27T21:25:27.463Z,19.00
2022-08-27T21:27:54.061Z,19.00
2022-08-27T21:30:21.376Z,19.00
2022-08-27T21:32:48.473Z,19.00
2022-08-27T21:35:15.084Z,19.10
2022-08-27T21:37:41.859Z,19.00
2022-08-27T21:40:08.953Z,19.00
2022-08-27T21:42:35.706Z,19.00
2022-08-27T21:45:02.451Z,19.00
2022-08-27T21:47:30.128Z,19.00
2022-08-27T21:49:56.718Z,19.00
2022-08-27T21:52:23.823Z,19.00
2022-08-27T21:54:50.422Z,18.90
2022-08-27T21:57:17.061Z,19.00
2022-08-27T21:59:44.658Z,18.90
2022-08-27T22:02:35.853Z,18.90
2022-08-27T22:04:57.998Z,19.00
2022-08-27T22:07:24.711Z,19.00
2022-08-27T22:09:51.287Z,19.00
2022-08-27T22:12:18.082Z,18.90
2022-08-27T22:14:44.656Z,19.00
2022-08-27T22:17:15.555Z,18.90
2022-08-27T22:19:42.135Z,18.90
2022-08-27T22:22:08.724Z,18.90
2022-08-27T22:24:35.292Z,18.90
2022-08-27T22:27:01.883Z,18.90
2022-08-27T22:29:28.456Z,18.90
2022-08-27T22:31:57.565Z,18.90
2022-08-27T22:34:24.137Z,18.80
2022-08-27T22:36:50.796Z,18.80
2022-08-27T22:39:17.397Z,18.80
2022-08-27T22:41:46.136Z,18.80
2022-08-27T22:44:15.399Z,18.80
2022-08-27T22:46:42.034Z,18.70
2022-08-27T22:49:08.847Z,18.70
2022-08-27T22:51:35.496Z,18.70
2022-08-27T22:54:02.085Z,18.80
2022-08-27T22:56:28.737Z,18.70
2022-08-27T22:58:55.402Z,18.70
2022-08-27T23:01:22.262Z,18.70
2022-08-27T23:03:48.873Z,18.70
2022-08-27T23:06:15.521Z,18.70
2022-08-27T23:08:42.094Z,18.70
2022-08-27T23:11:08.709Z,18.70
2022-08-27T23:13:35.365Z,18.70
2022-08-27T23:16:03.890Z,18.60
2022-08-27T23:18:30.555Z,18.60
2022-08-27T23:20:57.144Z,18.60
2022-08-27T23:23:25.799Z,18.60
2022-08-27T23:26:15.281Z,18.60
2022-08-27T23:28:41.862Z,18.60
2022-08-27T23:31:08.868Z,18.60
2022-08-27T23:33:35.518Z,18.60
2022-08-27T23:36:02.167Z,18.50
2022-08-27T23:38:28.810Z,18.50
2022-08-27T23:40:56.026Z,18.40
2022-08-27T23:43:22.610Z,18.40
2022-08-27T23:45:49.288Z,18.40
2022-08-27T23:48:15.885Z,18.30
2022-08-27T23:50:42.720Z,18.30
2022-08-27T23:53:09.333Z,18.20
2022-08-27T23:55:36.460Z,18.20
2022-08-27T23:58:03.289Z,18.10
